Time;durP1;ratioP1;P1;durP2;ratioP2;P2;SDS_P1;SDS_P2;PMS_P1;PMS_P2;Temp;Humidity;BMP_temperature;BMP_pressure;BME280_temperature;BME280_humidity;BME280_pressure;Samples;Min_cycle;Max_cycle;Signal;HPM_P1;HPM_P2
2022/05/29 00:01:50;;;;;;;5.70;1.10;;;16.60;71.30;;;;;;5013798;28;20076;-65
2022/05/29 00:04:15;;;;;;;5.57;1.20;;;16.60;71.00;;;;;;5002168;28;20495;-64
2022/05/29 00:06:43;;;;;;;6.43;1.48;;;16.60;71.00;;;;;;5006435;28;20018;-64
2022/05/29 00:09:12;;;;;;;5.90;1.10;;;16.60;71.00;;;;;;5004772;28;20066;-64
2022/05/29 00:11:37;;;;;;;6.35;1.08;;;16.60;70.90;;;;;;4999400;28;20045;-65
2022/05/29 00:14:03;;;;;;;5.60;1.00;;;16.60;71.00;;;;;;5009452;28;20030;-64
2022/05/29 00:16:30;;;;;;;6.53;1.30;;;16.60;71.10;;;;;;5002940;28;20026;-64
2022/05/29 00:18:57;;;;;;;5.03;1.55;;;16.60;71.10;;;;;;5004995;28;20042;-65
2022/05/29 00:21:23;;;;;;;5.07;1.13;;;16.60;71.00;;;;;;5005507;28;20463;-64
2022/05/29 00:23:49;;;;;;;3.85;0.90;;;16.60;71.10;;;;;;4997857;28;20073;-65
2022/05/29 00:26:19;;;;;;;3.83;0.55;;;16.50;71.10;;;;;;5009785;28;20042;-65
2022/05/29 00:28:46;;;;;;;2.60;0.75;;;16.50;71.20;;;;;;5001855;28;20030;-65
2022/05/29 00:31:12;;;;;;;5.22;0.70;;;16.50;71.50;;;;;;5002484;28;20034;-60
2022/05/29 00:33:39;;;;;;;5.03;1.25;;;16.50;72.30;;;;;;5008075;28;20033;-64
2022/05/29 00:36:06;;;;;;;3.05;0.70;;;16.50;71.70;;;;;;4996974;28;20038;-64
2022/05/29 00:38:38;;;;;;;5.72;1.33;;;16.50;71.80;;;;;;5014363;28;20030;-61
2022/05/29 00:41:10;;;;;;;3.53;1.25;;;16.40;72.00;;;;;;5014632;28;20034;-65
2022/05/29 00:43:36;;;;;;;7.82;1.38;;;16.40;71.70;;;;;;5014640;28;20030;-65
2022/05/29 00:46:02;;;;;;;4.60;1.30;;;16.40;71.80;;;;;;5014232;28;20413;-64
2022/05/29 00:48:28;;;;;;;7.03;1.00;;;16.40;72.20;;;;;;5014287;28;20025;-61
2022/05/29 00:50:59;;;;;;;1.88;0.50;;;16.40;72.10;;;;;;5014433;28;20499;-64
2022/05/29 00:53:27;;;;;;;6.03;1.20;;;16.30;72.20;;;;;;5014579;28;20083;-64
2022/05/29 00:56:01;;;;;;;8.32;1.05;;;16.40;72.40;;;;;;5014367;28;20033;-62
2022/05/29 00:58:27;;;;;;;5.75;1.33;;;16.40;72.40;;;;;;5014106;28;20041;-65
2022/05/29 01:00:55;;;;;;;5.20;1.00;;;16.30;72.30;;;;;;5014006;28;20034;-64
2022/05/29 01:03:21;;;;;;;7.85;1.40;;;16.30;72.50;;;;;;5014335;28;20033;-65
2022/05/29 01:05:46;;;;;;;5.75;1.17;;;16.30;72.60;;;;;;5013868;28;20030;-65
2022/05/29 01:08:23;;;;;;;6.82;1.20;;;16.30;72.90;;;;;;5014483;28;20034;-63
2022/05/29 01:10:48;;;;;;;3.38;0.88;;;16.30;72.80;;;;;;4996186;28;20397;-63
2022/05/29 01:13:38;;;;;;;3.70;0.80;;;16.20;72.80;;;;;;5014308;28;20030;-64
2022/05/29 01:16:27;;;;;;;6.00;0.93;;;16.20;72.80;;;;;;5013794;28;20452;-64
2022/05/29 01:19:11;;;;;;;4.53;0.85;;;16.20;72.50;;;;;;5013144;28;20121;-65
2022/05/29 01:22:03;;;;;;;4.75;0.68;;;16.20;72.30;;;;;;5013579;28;20029;-64
2022/05/29 01:24:40;;;;;;;4.68;0.82;;;16.20;72.10;;;;;;4976404;28;20034;-65
2022/05/29 01:27:14;;;;;;;4.68;0.90;;;16.10;72.30;;;;;;5013878;28;20033;-64
2022/05/29 01:29:53;;;;;;;5.70;0.88;;;16.20;73.10;;;;;;5013430;28;20379;-64
2022/05/29 01:32:39;;;;;;;4.70;0.80;;;16.10;73.60;;;;;;5013272;28;20057;-63
2022/05/29 01:35:22;;;;;;;3.65;0.70;;;16.10;74.50;;;;;;5013719;28;20026;-64
2022/05/29 01:37:59;;;;;;;3.25;0.60;;;16.10;75.90;;;;;;5013586;28;20590;-64
2022/05/29 01:40:41;;;;;;;5.78;0.90;;;16.10;75.60;;;;;;5013872;28;20021;-60
2022/05/29 01:43:09;;;;;;;3.28;0.73;;;16.10;75.10;;;;;;5013717;28;20033;-64
2022/05/29 01:45:54;;;;;;;4.10;1.02;;;16.10;74.70;;;;;;5012311;28;20395;-64
2022/05/29 01:48:39;;;;;;;4.40;1.25;;;16.00;74.80;;;;;;5013555;28;20037;-64
2022/05/29 01:51:20;;;;;;;6.55;1.30;;;16.00;74.20;;;;;;5013174;28;20025;-64
2022/05/29 01:53:51;;;;;;;4.93;1.00;;;16.00;74.50;;;;;;5013426;28;20478;-63
2022/05/29 01:56:24;;;;;;;7.00;1.23;;;16.00;74.70;;;;;;5013588;28;20080;-62
2022/05/29 01:59:01;;;;;;;6.20;0.93;;;16.00;74.70;;;;;;5012933;28;20109;-64
2022/05/29 02:01:31;;;;;;;4.53;1.10;;;16.00;74.70;;;;;;5010156;28;20382;-63
2022/05/29 02:04:01;;;;;;;3.55;0.82;;;16.00;75.70;;;;;;5013098;28;20084;-65
2022/05/29 02:07:47;;;;;;;5.32;0.85;;;16.00;75.40;;;;;;5012315;28;20033;-65
2022/05/29 02:09:22;;;;;;;4.70;0.68;;;16.00;75.00;;;;;;5012863;28;20042;-64
2022/05/29 02:11:52;;;;;;;5.22;0.88;;;15.90;75.20;;;;;;5012869;28;20029;-61
2022/05/29 02:14:25;;;;;;;4.65;0.65;;;16.00;75.80;;;;;;5012876;28;20364;-64
2022/05/29 02:16:55;;;;;;;4.68;1.05;;;16.00;76.20;;;;;;5012885;28;20478;-63
2022/05/29 02:19:56;;;;;;;5.30;1.08;;;15.90;76.10;;;;;;5013195;28;20125;-65
2022/05/29 02:22:29;;;;;;;3.67;1.60;;;16.00;75.70;;;;;;4995703;28;20498;-62
2022/05/29 02:25:07;;;;;;;5.60;2.08;;;16.00;76.60;;;;;;5012924;28;20479;-63
2022/05/29 02:27:37;;;;;;;4.60;2.00;;;16.00;76.60;;;;;;5012852;28;20050;-64
2022/05/29 02:30:05;;;;;;;6.30;1.92;;;15.90;76.30;;;;;;5013032;28;20032;-64
2022/05/29 02:32:54;;;;;;;5.38;1.25;;;15.90;76.80;;;;;;5012888;28;20026;-64
2022/05/29 02:35:33;;;;;;;4.32;0.93;;;15.90;76.30;;;;;;5013008;28;20022;-59
2022/05/29 02:38:03;;;;;;;2.95;0.95;;;15.90;75.70;;;;;;5012884;28;20479;-65
2022/05/29 02:40:34;;;;;;;3.35;0.70;;;15.90;74.70;;;;;;5013204;28;20026;-65
2022/05/29 02:43:39;;;;;;;3.85;0.93;;;15.80;75.10;;;;;;5012500;28;20034;-60
2022/05/29 02:46:17;;;;;;;4.75;1.02;;;15.90;75.40;;;;;;5016325;28;20498;-64
2022/05/29 02:48:56;;;;;;;4.60;1.25;;;15.90;75.50;;;;;;5016869;28;20375;-63
2022/05/29 02:51:39;;;;;;;3.50;0.93;;;15.80;76.00;;;;;;5017040;28;20033;-64
2022/05/29 02:54:05;;;;;;;3.30;1.17;;;15.80;76.30;;;;;;5016639;28;20042;-65
2022/05/29 02:56:30;;;;;;;4.32;0.85;;;15.90;76.50;;;;;;5016107;28;20033;-65
2022/05/29 02:58:58;;;;;;;4.35;0.80;;;15.80;76.30;;;;;;5016436;28;20034;-65
2022/05/29 03:01:45;;;;;;;1.88;0.65;;;15.80;76.00;;;;;;5016055;28;20026;-63
2022/05/29 03:04:28;;;;;;;3.15;0.77;;;15.80;76.40;;;;;;5016437;28;20037;-65
2022/05/29 03:07:22;;;;;;;4.45;0.80;;;15.80;77.10;;;;;;5016219;28;20026;-63
2022/05/29 03:10:17;;;;;;;2.22;0.52;;;15.80;77.30;;;;;;4998347;28;20442;-65
2022/05/29 03:12:53;;;;;;;3.58;0.90;;;15.80;77.60;;;;;;5016257;28;20426;-64
2022/05/29 03:15:38;;;;;;;6.50;1.30;;;15.80;78.10;;;;;;5016274;28;20026;-64
2022/05/29 03:18:50;;;;;;;2.70;0.68;;;15.80;78.30;;;;;;4996309;28;20114;-64
2022/05/29 03:21:34;;;;;;;3.10;1.27;;;15.80;78.30;;;;;;4898759;29;20028;-64
2022/05/29 03:24:33;;;;;;;4.03;1.17;;;15.70;78.40;;;;;;4995982;28;20273;-64
2022/05/29 03:27:43;;;;;;;4.05;0.82;;;15.70;78.80;;;;;;5009063;28;20482;-65
2022/05/29 03:30:18;;;;;;;6.28;1.23;;;15.70;78.80;;;;;;5011063;28;20046;-64
2022/05/29 03:32:46;;;;;;;4.10;0.90;;;15.70;78.70;;;;;;5015966;28;20509;-61
2022/05/29 03:35:16;;;;;;;6.07;1.30;;;15.70;79.20;;;;;;5015549;28;20030;-65
2022/05/29 03:37:42;;;;;;;2.72;0.85;;;15.70;79.20;;;;;;5016140;28;20034;-65
2022/05/29 03:40:09;;;;;;;5.07;1.02;;;15.70;79.00;;;;;;5015469;28;20120;-64
2022/05/29 03:42:34;;;;;;;2.90;0.77;;;15.70;79.20;;;;;;5015732;28;20060;-64
2022/05/29 03:45:00;;;;;;;3.60;0.98;;;15.70;79.10;;;;;;5015517;28;20494;-65
2022/05/29 03:47:25;;;;;;;1.80;0.60;;;15.70;79.00;;;;;;5015583;28;20482;-64
2022/05/29 03:49:51;;;;;;;4.63;1.10;;;15.60;79.10;;;;;;5015677;28;20498;-63
2022/05/29 03:52:16;;;;;;;4.50;1.00;;;15.60;79.50;;;;;;5015692;28;20053;-64
2022/05/29 03:54:42;;;;;;;2.90;0.85;;;15.60;79.50;;;;;;5015186;28;20025;-64
2022/05/29 03:57:07;;;;;;;2.67;0.90;;;15.60;79.20;;;;;;5013928;28;20368;-64
2022/05/29 03:59:33;;;;;;;3.08;1.30;;;15.60;79.40;;;;;;5015166;28;20064;-64
2022/05/29 04:01:58;;;;;;;4.00;0.95;;;15.60;79.40;;;;;;5015514;28;20067;-64
2022/05/29 04:04:24;;;;;;;4.80;0.85;;;15.60;79.30;;;;;;5015262;28;20038;-64
2022/05/29 04:06:49;;;;;;;6.75;1.30;;;15.60;79.30;;;;;;5015088;28;20030;-64
2022/05/29 04:12:05;;;;;;;5.18;1.17;;;15.60;79.40;;;;;;5015658;28;20037;-63
2022/05/29 04:14:37;;;;;;;4.33;0.90;;;15.50;79.40;;;;;;5015120;28;20045;-64
2022/05/29 04:17:03;;;;;;;3.30;1.10;;;15.50;79.40;;;;;;5014814;28;20022;-62
2022/05/29 04:19:28;;;;;;;3.63;1.42;;;15.50;79.40;;;;;;5015037;28;20041;-63
2022/05/29 04:21:54;;;;;;;2.97;0.77;;;15.50;79.50;;;;;;5015128;28;20030;-64
2022/05/29 04:24:20;;;;;;;3.67;1.10;;;15.50;79.50;;;;;;5014673;28;20115;-63
2022/05/29 04:26:48;;;;;;;4.10;1.33;;;15.40;79.70;;;;;;5014665;28;20018;-64
2022/05/29 04:29:14;;;;;;;2.97;0.90;;;15.40;79.80;;;;;;5014871;28;20033;-64
2022/05/29 04:32:59;;;;;;;3.78;1.17;;;15.40;80.00;;;;;;5015030;28;20037;-65
2022/05/29 04:34:25;;;;;;;7.38;1.25;;;15.40;79.90;;;;;;5014522;28;20041;-64
2022/05/29 04:36:50;;;;;;;4.65;1.02;;;15.40;80.00;;;;;;5014686;28;20390;-64
2022/05/29 04:39:16;;;;;;;4.18;0.80;;;15.40;80.00;;;;;;5014022;28;20038;-64
2022/05/29 04:41:42;;;;;;;4.38;1.33;;;15.40;79.90;;;;;;5014759;28;20463;-64
2022/05/29 04:44:07;;;;;;;4.35;1.30;;;15.40;79.70;;;;;;4997071;28;20025;-65
2022/05/29 04:46:33;;;;;;;7.03;1.70;;;15.40;79.70;;;;;;5014601;28;20018;-65
2022/05/29 04:48:59;;;;;;;5.75;2.00;;;15.40;79.70;;;;;;5014625;28;20036;-62
2022/05/29 04:51:24;;;;;;;4.78;2.13;;;15.40;79.80;;;;;;5014184;28;20060;-64
2022/05/29 04:53:50;;;;;;;5.28;1.30;;;15.40;79.90;;;;;;5014250;28;20033;-63
2022/05/29 04:56:15;;;;;;;3.55;1.40;;;15.30;80.00;;;;;;5014481;28;20364;-64
2022/05/29 04:58:41;;;;;;;5.80;1.50;;;15.30;80.30;;;;;;5014394;28;20537;-61
2022/05/29 05:01:06;;;;;;;2.58;0.90;;;15.40;80.40;;;;;;5007585;28;20088;-64
2022/05/29 05:03:32;;;;;;;3.90;1.27;;;15.30;80.30;;;;;;4994891;28;20484;-63
2022/05/29 05:05:58;;;;;;;4.18;1.20;;;15.30;80.30;;;;;;4993290;28;20053;-64
2022/05/29 05:08:23;;;;;;;6.95;1.80;;;15.30;80.40;;;;;;4993742;28;20084;-64
2022/05/29 05:10:49;;;;;;;7.07;1.70;;;15.40;80.30;;;;;;5004707;28;20084;-64
2022/05/29 05:13:15;;;;;;;5.28;1.38;;;15.40;80.30;;;;;;5013514;28;20032;-65
2022/05/29 05:15:41;;;;;;;5.15;1.55;;;15.30;80.10;;;;;;5014250;28;20061;-64
2022/05/29 05:18:07;;;;;;;5.80;1.63;;;15.30;80.20;;;;;;5013903;28;20544;-64
2022/05/29 05:20:33;;;;;;;3.63;1.55;;;15.30;80.20;;;;;;5013688;28;20034;-65
2022/05/29 05:22:59;;;;;;;6.38;1.52;;;15.30;80.30;;;;;;5013637;28;20044;-65
2022/05/29 05:25:25;;;;;;;6.25;2.30;;;15.30;80.30;;;;;;5014024;28;20191;-61
2022/05/29 05:27:51;;;;;;;8.18;2.88;;;15.30;80.40;;;;;;5014038;28;20518;-65
2022/05/29 05:30:17;;;;;;;4.93;2.30;;;15.30;80.30;;;;;;5013555;28;20025;-65
2022/05/29 05:32:42;;;;;;;8.75;2.78;;;15.30;80.50;;;;;;5013443;28;20088;-64
2022/05/29 05:35:08;;;;;;;9.30;2.15;;;15.30;81.30;;;;;;5013788;28;20050;-64
2022/05/29 05:37:36;;;;;;;7.80;2.10;;;15.40;82.50;;;;;;5013305;28;20038;-65
2022/05/29 05:40:09;;;;;;;5.20;2.13;;;15.50;82.80;;;;;;5013766;28;20033;-64
2022/05/29 05:42:35;;;;;;;7.20;1.70;;;15.50;82.80;;;;;;5013127;28;20117;-64
2022/05/29 05:45:00;;;;;;;6.50;1.52;;;15.60;82.80;;;;;;5013765;28;20021;-64
2022/05/29 05:47:26;;;;;;;6.50;1.65;;;15.80;82.30;;;;;;5013334;28;20372;-65
2022/05/29 05:49:52;;;;;;;8.38;1.67;;;15.80;81.30;;;;;;5013787;28;20495;-66
2022/05/29 05:52:18;;;;;;;4.60;1.35;;;16.00;81.60;;;;;;4997961;28;20029;-65
2022/05/29 05:54:45;;;;;;;5.07;1.40;;;16.00;80.90;;;;;;4999205;28;20034;-65
2022/05/29 05:57:10;;;;;;;6.57;1.85;;;16.10;81.00;;;;;;4994583;28;20033;-64
2022/05/29 05:59:37;;;;;;;6.70;1.35;;;16.20;80.60;;;;;;5008527;28;20029;-64
2022/05/29 06:02:04;;;;;;;4.60;1.38;;;16.30;80.10;;;;;;4999657;28;20018;-65
2022/05/29 06:04:30;;;;;;;6.40;1.23;;;16.30;79.80;;;;;;5000505;28;20383;-64
2022/05/29 06:06:55;;;;;;;5.80;1.38;;;16.40;79.60;;;;;;5007740;28;20088;-65
2022/05/29 06:09:22;;;;;;;5.45;1.30;;;16.50;78.10;;;;;;5005495;28;20095;-65
2022/05/29 06:11:48;;;;;;;3.88;1.10;;;16.60;77.30;;;;;;5012002;28;20060;-65
2022/05/29 06:14:14;;;;;;;7.32;1.50;;;16.60;76.40;;;;;;5010662;28;20037;-65
2022/05/29 06:16:39;;;;;;;5.97;1.48;;;16.80;75.90;;;;;;5011575;28;20026;-65
2022/05/29 06:19:06;;;;;;;5.18;1.25;;;16.80;75.40;;;;;;5011582;28;20046;-65
2022/05/29 06:21:35;;;;;;;6.30;1.52;;;16.80;74.70;;;;;;5016268;28;20541;-66
2022/05/29 06:24:01;;;;;;;7.47;2.10;;;16.90;74.80;;;;;;5013817;28;20024;-66
2022/05/29 06:26:26;;;;;;;4.93;1.30;;;16.90;74.80;;;;;;5000735;28;20100;-65
2022/05/29 06:28:52;;;;;;;5.25;1.48;;;16.90;74.10;;;;;;5016232;28;20053;-62
2022/05/29 06:31:18;;;;;;;4.60;1.13;;;16.90;73.90;;;;;;5008454;28;20029;-65
2022/05/29 06:33:43;;;;;;;6.32;1.35;;;16.90;74.10;;;;;;5010678;28;20511;-65
2022/05/29 06:36:20;;;;;;;5.60;1.27;;;16.90;74.50;;;;;;5013470;28;20061;-65
2022/05/29 06:38:46;;;;;;;7.10;1.10;;;16.90;74.50;;;;;;5007231;28;20034;-66
2022/05/29 06:41:16;;;;;;;4.53;1.30;;;17.00;75.60;;;;;;5013128;28;20368;-65
2022/05/29 06:43:42;;;;;;;3.85;1.00;;;17.10;75.90;;;;;;5009153;28;20025;-65
2022/05/29 06:46:09;;;;;;;3.78;1.08;;;17.10;75.10;;;;;;5016053;28;20112;-65
2022/05/29 06:48:37;;;;;;;3.05;0.80;;;17.10;74.50;;;;;;5007170;28;20550;-66
2022/05/29 06:51:15;;;;;;;5.60;1.00;;;17.10;74.00;;;;;;5008594;28;20430;-65
2022/05/29 06:53:41;;;;;;;3.70;0.80;;;17.10;74.30;;;;;;5015677;28;20185;-65
2022/05/29 06:56:08;;;;;;;3.38;0.70;;;17.20;74.20;;;;;;5015521;28;20037;-65
2022/05/29 06:58:35;;;;;;;3.60;0.77;;;17.20;74.70;;;;;;5014249;28;20070;-66
2022/05/29 07:09:18;;;;;;;4.65;0.50;;;17.30;73.00;;;;;;5012941;28;20084;-65
2022/05/29 07:11:46;;;;;;;3.00;0.70;;;17.30;72.60;;;;;;5011726;28;20025;-65
2022/05/29 07:14:13;;;;;;;2.35;0.52;;;17.30;72.60;;;;;;5011224;28;20033;-64
2022/05/29 07:16:39;;;;;;;3.25;0.77;;;17.30;72.80;;;;;;5008627;28;20034;-65
2022/05/29 07:19:05;;;;;;;2.55;0.57;;;17.30;72.50;;;;;;5008294;28;20034;-64
2022/05/29 07:21:38;;;;;;;2.15;0.50;;;17.20;72.50;;;;;;5015257;28;20037;-64
2022/05/29 07:24:04;;;;;;;2.28;0.50;;;17.30;72.60;;;;;;5014230;28;20471;-65
2022/05/29 07:26:30;;;;;;;2.78;0.50;;;17.20;71.90;;;;;;5014064;28;20045;-66
2022/05/29 07:28:55;;;;;;;3.25;0.68;;;17.20;73.10;;;;;;5012062;28;20084;-65
2022/05/29 07:31:22;;;;;;;2.38;0.38;;;17.20;72.40;;;;;;5014197;28;20034;-65
2022/05/29 07:33:47;;;;;;;3.35;0.75;;;17.10;72.90;;;;;;5014050;28;20034;-64
2022/05/29 07:36:13;;;;;;;4.82;0.43;;;17.10;73.30;;;;;;5013567;28;20097;-65
2022/05/29 07:38:39;;;;;;;2.47;0.60;;;17.10;73.90;;;;;;5010100;28;20034;-63
2022/05/29 07:43:52;;;;;;;3.30;0.88;;;17.10;73.00;;;;;;5014638;28;20096;-67
2022/05/29 07:46:18;;;;;;;3.58;0.60;;;17.20;73.40;;;;;;5013040;28;20121;-66
2022/05/29 07:48:43;;;;;;;2.45;0.55;;;17.20;73.40;;;;;;5014283;28;20072;-67
2022/05/29 07:51:10;;;;;;;2.22;0.50;;;17.30;74.10;;;;;;5015385;28;20069;-67
2022/05/29 07:53:36;;;;;;;2.35;0.40;;;17.40;74.20;;;;;;5014809;28;20029;-66
2022/05/29 07:56:02;;;;;;;3.30;0.40;;;17.50;72.10;;;;;;5014567;28;20038;-66
2022/05/29 07:58:28;;;;;;;0.65;0.20;;;17.50;72.60;;;;;;5015243;28;20030;-68
2022/05/29 08:00:54;;;;;;;1.05;0.20;;;17.50;68.50;;;;;;5015223;28;20034;-68
2022/05/29 08:03:22;;;;;;;1.08;0.20;;;17.60;69.10;;;;;;5014312;28;20410;-68
2022/05/29 08:05:48;;;;;;;2.85;0.40;;;17.70;68.70;;;;;;5015223;28;20030;-69
2022/05/29 08:08:14;;;;;;;1.20;0.13;;;17.70;69.60;;;;;;5014953;28;20104;-65
2022/05/29 08:10:41;;;;;;;2.42;0.30;;;17.80;70.60;;;;;;5015129;28;20479;-70
2022/05/29 08:13:07;;;;;;;2.90;0.30;;;17.80;69.80;;;;;;5014030;28;20111;-67
2022/05/29 08:15:34;;;;;;;2.65;0.30;;;17.90;69.70;;;;;;5012477;28;20069;-66
2022/05/29 08:17:59;;;;;;;3.80;0.50;;;17.90;69.00;;;;;;5014340;28;20443;-65
2022/05/29 08:20:27;;;;;;;3.05;0.22;;;17.90;70.20;;;;;;5011785;28;20959;-66
2022/05/29 08:22:53;;;;;;;3.53;0.30;;;17.90;69.30;;;;;;5013903;28;20471;-66
2022/05/29 08:30:53;;;;;;;1.88;0.60;;;17.90;69.40;;;;;;5003031;28;20119;-66
2022/05/29 08:33:28;;;;;;;2.45;0.38;;;18.00;68.40;;;;;;5010194;28;20033;-66
2022/05/29 08:36:33;;;;;;;3.10;0.73;;;18.00;69.20;;;;;;5008715;28;20558;-66
2022/05/29 08:38:59;;;;;;;5.18;0.57;;;18.00;67.60;;;;;;4987214;28;20046;-66
2022/05/29 08:41:44;;;;;;;3.42;0.32;;;18.00;67.80;;;;;;5012121;28;20474;-66
2022/05/29 08:44:14;;;;;;;1.73;0.82;;;18.10;67.40;;;;;;5001228;28;20048;-64
2022/05/29 08:46:48;;;;;;;3.80;0.40;;;18.10;66.90;;;;;;5001632;28;20403;-67
2022/05/29 08:49:19;;;;;;;2.03;0.77;;;18.10;67.70;;;;;;5006931;28;20498;-66
2022/05/29 08:52:00;;;;;;;2.63;0.65;;;18.20;68.30;;;;;;5007788;28;20241;-67
2022/05/29 08:54:54;;;;;;;2.40;0.40;;;18.20;68.70;;;;;;4998183;28;20102;-68
2022/05/29 08:57:28;;;;;;;2.28;0.57;;;18.20;68.50;;;;;;5004435;28;20025;-68
2022/05/29 08:59:59;;;;;;;3.33;0.63;;;18.20;71.80;;;;;;5003211;28;20104;-66
2022/05/29 09:02:27;;;;;;;7.15;0.75;;;18.30;72.60;;;;;;4995394;28;20038;-69
2022/05/29 09:05:07;;;;;;;2.45;0.65;;;18.30;72.80;;;;;;5005887;28;20084;-69
2022/05/29 09:07:37;;;;;;;2.47;0.30;;;18.30;73.60;;;;;;5005629;28;20061;-62
2022/05/29 09:10:38;;;;;;;3.15;0.55;;;18.30;73.10;;;;;;5004212;28;20040;-60
2022/05/29 09:13:08;;;;;;;2.92;0.60;;;18.30;72.50;;;;;;5004622;28;20029;-67
2022/05/29 09:15:40;;;;;;;5.65;0.65;;;18.30;72.40;;;;;;5002593;28;20040;-66
2022/05/29 09:18:15;;;;;;;5.05;0.65;;;18.40;73.10;;;;;;5007918;28;20072;-60
2022/05/29 09:21:03;;;;;;;1.30;0.40;;;18.40;72.20;;;;;;5001238;28;20037;-66
2022/05/29 09:23:35;;;;;;;2.65;0.50;;;18.40;73.00;;;;;;5006733;28;20030;-64
2022/05/29 09:26:06;;;;;;;2.60;0.40;;;18.40;71.90;;;;;;4993530;28;20074;-66
2022/05/29 09:28:41;;;;;;;2.28;0.43;;;18.40;72.00;;;;;;5008058;28;20398;-65
2022/05/29 09:31:19;;;;;;;1.67;0.28;;;18.40;73.10;;;;;;5008636;28;20044;-66
2022/05/29 09:33:45;;;;;;;4.32;0.63;;;18.40;71.90;;;;;;5009600;28;20076;-66
2022/05/29 09:36:54;;;;;;;2.55;0.50;;;18.30;72.80;;;;;;4997346;28;20482;-64
2022/05/29 09:39:30;;;;;;;1.50;0.63;;;18.20;73.50;;;;;;5004411;28;20030;-67
2022/05/29 09:42:04;;;;;;;5.00;0.40;;;18.20;75.20;;;;;;5010630;28;20084;-66
2022/05/29 09:44:30;;;;;;;2.75;0.70;;;18.20;75.60;;;;;;4995287;28;20022;-66
2022/05/29 09:49:40;;;;;;;2.92;0.60;;;18.20;76.30;;;;;;5003573;28;20034;-66
2022/05/29 09:49:41;;;;;;;3.53;0.45;;;18.20;74.40;;;;;;5003094;28;20040;-63
2022/05/29 09:52:20;;;;;;;2.75;0.35;;;18.30;76.60;;;;;;5006149;28;20034;-67
2022/05/29 09:54:56;;;;;;;2.97;0.68;;;18.30;75.10;;;;;;5008129;28;20104;-66
2022/05/29 09:57:27;;;;;;;2.25;0.50;;;18.30;75.00;;;;;;5010090;28;20026;-66
2022/05/29 10:00:15;;;;;;;1.80;0.30;;;18.30;75.80;;;;;;5007664;28;20462;-68
2022/05/29 10:02:45;;;;;;;4.88;1.08;;;18.10;76.00;;;;;;4989608;28;20077;-67
2022/05/29 10:05:36;;;;;;;2.53;0.98;;;17.90;77.10;;;;;;5010063;28;20497;-64
2022/05/29 10:08:31;;;;;;;4.00;0.70;;;17.90;77.90;;;;;;5003283;28;20070;-63
2022/05/29 10:11:30;;;;;;;3.13;1.00;;;17.80;78.00;;;;;;4998503;28;20117;-66
2022/05/29 10:13:56;;;;;;;3.83;1.13;;;17.90;79.10;;;;;;4978027;28;20034;-67
2022/05/29 10:16:38;;;;;;;4.90;1.50;;;18.00;80.10;;;;;;4997697;28;20096;-66
2022/05/29 10:19:09;;;;;;;3.50;1.60;;;18.10;79.10;;;;;;5009811;28;20974;-67
2022/05/29 10:21:47;;;;;;;4.25;1.40;;;18.20;78.50;;;;;;4996988;28;20113;-67
2022/05/29 10:24:36;;;;;;;2.70;1.02;;;18.20;78.30;;;;;;5006501;28;20125;-65
2022/05/29 10:27:05;;;;;;;2.65;0.98;;;18.20;78.80;;;;;;5009261;28;20030;-66
2022/05/29 10:29:34;;;;;;;4.55;1.27;;;18.20;79.80;;;;;;5010161;28;21942;-66
2022/05/29 10:32:03;;;;;;;3.10;0.80;;;18.30;80.10;;;;;;5009162;28;20112;-66
2022/05/29 10:34:40;;;;;;;3.78;0.90;;;18.30;79.70;;;;;;5006156;28;20502;-66
2022/05/29 10:37:26;;;;;;;3.40;0.90;;;18.30;79.30;;;;;;5008781;28;20060;-67
2022/05/29 10:40:10;;;;;;;3.33;1.05;;;18.30;78.60;;;;;;5009800;28;20060;-66
2022/05/29 10:42:41;;;;;;;1.65;0.80;;;18.30;78.30;;;;;;4996042;28;20038;-66
2022/05/29 10:45:08;;;;;;;2.83;0.73;;;18.30;77.90;;;;;;5008856;28;20057;-68
2022/05/29 10:47:46;;;;;;;3.15;1.00;;;18.30;77.20;;;;;;4999910;28;20109;-67
2022/05/29 10:50:35;;;;;;;3.40;0.90;;;18.30;76.40;;;;;;5007204;28;20483;-65
2022/05/29 10:53:24;;;;;;;3.45;0.77;;;18.10;77.90;;;;;;4999371;28;20037;-67
2022/05/29 10:56:06;;;;;;;4.20;0.85;;;18.20;78.80;;;;;;4995458;28;20460;-65
2022/05/29 10:58:42;;;;;;;4.82;0.77;;;18.10;78.10;;;;;;5002102;28;20479;-78
2022/05/29 11:04:48;;;;;;;4.47;1.58;;;18.00;78.00;;;;;;5003738;28;20081;-77
2022/05/29 11:07:46;;;;;;;2.97;0.93;;;18.00;78.40;;;;;;4983416;28;20567;-75
2022/05/29 11:10:33;;;;;;;2.78;0.68;;;18.00;77.40;;;;;;5023460;28;20038;-77
2022/05/29 11:13:24;;;;;;;3.08;0.70;;;18.10;75.50;;;;;;5010535;28;20034;-74
2022/05/29 11:16:25;;;;;;;3.72;0.68;;;18.10;75.10;;;;;;5012676;28;20110;-64
2022/05/29 11:18:53;;;;;;;8.13;1.50;;;18.20;76.80;;;;;;4921415;28;20229;-66
2022/05/29 11:21:37;;;;;;;6.68;1.30;;;18.30;78.70;;;;;;5010268;28;20445;-65
2022/05/29 11:24:35;;;;;;;6.60;1.48;;;18.30;79.40;;;;;;5008589;28;20291;-64
2022/05/29 11:27:19;;;;;;;3.72;0.85;;;18.40;78.90;;;;;;5009242;28;20056;-64
2022/05/29 11:30:02;;;;;;;3.53;1.00;;;18.40;78.00;;;;;;5005280;28;20026;-64
2022/05/29 11:32:43;;;;;;;2.22;0.40;;;18.40;77.10;;;;;;5004438;28;20194;-64
2022/05/29 11:35:17;;;;;;;3.70;0.60;;;18.40;76.70;;;;;;5002267;28;20034;-64
2022/05/29 11:38:10;;;;;;;1.73;0.47;;;18.50;77.20;;;;;;5008843;28;20089;-60
2022/05/29 11:40:43;;;;;;;2.05;0.57;;;18.50;76.10;;;;;;5011265;28;20026;-59
2022/05/29 11:43:24;;;;;;;1.20;0.32;;;18.60;76.60;;;;;;5006797;28;20254;-66
2022/05/29 11:51:54;;;;;;;1.15;0.20;;;18.60;71.70;;;;;;5013054;28;20092;-65
2022/05/29 11:54:23;;;;;;;1.27;0.25;;;18.50;70.70;;;;;;4991602;28;20030;-66
2022/05/29 11:56:52;;;;;;;1.27;0.40;;;18.50;72.30;;;;;;4999684;28;20044;-65
2022/05/29 11:59:24;;;;;;;1.02;0.30;;;18.50;73.70;;;;;;5006643;28;20026;-66
2022/05/29 12:02:04;;;;;;;1.35;0.20;;;18.40;71.70;;;;;;5011617;28;20045;-66
2022/05/29 12:04:35;;;;;;;1.58;0.40;;;18.40;71.40;;;;;;5004739;28;20439;-65
2022/05/29 12:07:13;;;;;;;4.03;0.60;;;18.30;73.20;;;;;;5003315;28;20022;-65
2022/05/29 12:09:46;;;;;;;4.88;0.70;;;18.30;74.70;;;;;;5012009;28;20037;-60
2022/05/29 12:12:17;;;;;;;5.70;0.65;;;18.30;75.70;;;;;;5002312;28;20034;-67
2022/05/29 12:15:02;;;;;;;3.08;0.38;;;18.30;76.40;;;;;;5006577;28;20137;-63
2022/05/29 12:17:29;;;;;;;3.35;0.40;;;18.30;75.10;;;;;;5002324;28;20034;-65
2022/05/29 12:20:04;;;;;;;2.35;0.40;;;18.30;75.40;;;;;;5005766;28;20100;-65
2022/05/29 12:22:37;;;;;;;4.57;0.47;;;18.30;75.00;;;;;;4985690;28;20052;-68
2022/05/29 12:25:10;;;;;;;2.88;0.55;;;18.40;75.30;;;;;;5006699;28;20511;-66
2022/05/29 12:27:36;;;;;;;2.45;0.40;;;18.40;74.00;;;;;;5002674;28;20091;-67
2022/05/29 12:30:07;;;;;;;2.47;0.32;;;18.40;73.80;;;;;;5002658;28;20038;-65
2022/05/29 12:32:35;;;;;;;1.65;0.38;;;18.40;74.50;;;;;;5004161;28;20115;-62
2022/05/29 12:35:21;;;;;;;1.90;0.22;;;18.40;73.70;;;;;;5004408;28;20045;-63
2022/05/29 12:37:56;;;;;;;2.08;0.30;;;18.30;73.60;;;;;;5008123;28;20045;-67
2022/05/29 12:40:51;;;;;;;2.78;0.30;;;18.30;73.70;;;;;;5005543;28;20084;-63
2022/05/29 12:43:38;;;;;;;2.40;0.60;;;18.40;74.50;;;;;;5004400;28;20080;-65
2022/05/29 12:46:27;;;;;;;5.00;0.50;;;18.40;75.60;;;;;;5009478;28;20025;-65
2022/05/29 12:49:30;;;;;;;2.20;0.40;;;18.50;74.90;;;;;;5005515;28;20034;-66
2022/05/29 12:52:11;;;;;;;2.70;0.30;;;18.40;75.10;;;;;;5005919;28;20056;-67
2022/05/29 12:54:58;;;;;;;4.15;0.30;;;18.50;75.60;;;;;;5004369;28;20117;-66
2022/05/29 12:57:47;;;;;;;2.83;0.40;;;18.50;75.00;;;;;;5004310;28;20045;-66
2022/05/29 13:00:22;;;;;;;2.92;0.70;;;18.50;75.60;;;;;;5006547;28;20037;-64
2022/05/29 13:03:01;;;;;;;1.88;0.35;;;18.50;76.50;;;;;;5006159;28;20042;-67
2022/05/29 13:05:44;;;;;;;1.98;0.20;;;18.50;77.10;;;;;;5001763;28;20387;-65
2022/05/29 13:08:13;;;;;;;2.78;0.30;;;18.50;78.20;;;;;;5020758;28;20033;-69
2022/05/29 13:10:42;;;;;;;1.85;0.40;;;18.50;77.80;;;;;;5010694;28;20030;-61
2022/05/29 13:13:20;;;;;;;5.43;0.70;;;18.50;79.20;;;;;;5008229;28;20049;-65
2022/05/29 13:15:47;;;;;;;2.72;0.30;;;18.60;78.60;;;;;;5006633;28;20048;-64
2022/05/29 13:21:12;;;;;;;4.18;0.57;;;18.70;78.90;;;;;;5003042;28;20487;-70
2022/05/29 13:23:46;;;;;;;3.78;0.68;;;18.70;80.00;;;;;;5010203;28;20581;-60
2022/05/29 13:26:17;;;;;;;4.50;0.60;;;18.70;80.20;;;;;;5011435;28;20444;-64
2022/05/29 13:28:43;;;;;;;3.33;0.43;;;18.80;80.20;;;;;;5003035;28;20029;-65
2022/05/29 13:31:17;;;;;;;3.35;0.70;;;18.80;80.40;;;;;;5011726;28;20038;-65
2022/05/29 13:33:43;;;;;;;5.13;0.70;;;18.90;81.20;;;;;;5003914;28;20038;-65
2022/05/29 13:36:09;;;;;;;3.13;0.60;;;18.90;80.40;;;;;;5007199;28;20045;-66
2022/05/29 13:38:44;;;;;;;3.05;0.88;;;18.90;80.90;;;;;;5009589;28;20109;-65
2022/05/29 13:41:28;;;;;;;3.50;0.90;;;18.90;79.80;;;;;;5004181;28;20096;-65
2022/05/29 13:43:54;;;;;;;3.17;0.65;;;18.90;79.70;;;;;;4997664;28;20499;-66
2022/05/29 13:46:26;;;;;;;3.63;0.50;;;19.00;79.10;;;;;;5004183;28;21005;-65
2022/05/29 13:49:20;;;;;;;3.70;0.90;;;18.90;79.00;;;;;;5001593;28;20077;-67
2022/05/29 13:51:46;;;;;;;3.90;0.95;;;18.90;78.40;;;;;;4996412;28;20034;-65